Latest Weather Observations for Minnipa RS

IDS60801

Issued at 11:35 pm CST Sunday 21 September 2014 (issued every 30 minutes, with the page automatically refreshed every 10 minutes)

About weather observations | Map of weather stations | Latest weather observations for SA | Other Formats
Station Details ID: 018195 Name: MINNIPA PIRSA Lat: -32.84 Lon: 135.15 Height: 165.0 m
Data from the previous 72 hours. | See also: Recent months at Minnipa RS
Date/Time
CST
Temp
°C
App
Temp
°C
Dew
Point
Rel
Hum
%
Delta-T
°C
Wind Press
QNH
hPa
Press
MSL
hPa
Rain
since 9 am
mm
Dir
 
Spd
km/h
Gust
km/h
Spd
kts
Gust
kts
21/11:30pm 12.8 7.2 -3.0 33 6.1 ENE 17 20 9 11 1025.1 - 0.0
21/11:00pm 13.1 7.5 -3.2 32 6.3 NE 17 20 9 11 1025.2 - 0.0
21/10:30pm 13.6 7.3 -3.6 30 6.7 ENE 20 26 11 14 1025.4 - 0.0
21/10:00pm 15.1 9.8 -3.7 27 7.4 NNE 15 17 8 9 1025.1 - 0.0
21/09:30pm 16.1 10.4 -3.9 25 7.9 NNE 17 19 9 10 1025.0 - 0.0
21/09:00pm 16.4 10.6 -4.2 24 8.1 NNE 17 19 9 10 1025.0 1024.9 0.0
21/08:30pm 17.3 11.5 -4.6 22 8.7 NNE 17 19 9 10 1025.0 - 0.0
21/08:00pm 17.5 11.7 -5.0 21 8.8 NNE 17 20 9 11 1024.9 - 0.0
21/07:30pm 17.8 12.0 -4.8 21 8.9 NNE 17 19 9 10 1024.7 - 0.0
21/07:00pm 18.3 12.5 -5.0 20 9.2 NNE 17 20 9 11 1024.7 - 0.0
21/06:30pm 18.0 12.6 -4.6 21 9.0 NE 15 19 8 10 1024.5 - 0.0
21/06:00pm 20.8 15.7 -5.1 17 10.4 NE 13 19 7 10 1024.5 1024.4 0.0
21/05:30pm 23.0 17.4 -5.9 14 11.8 NE 15 20 8 11 1024.5 - 0.0
21/05:00pm 24.0 18.4 -6.1 13 12.3 NNE 15 22 8 12 1024.4 - 0.0
21/04:30pm 24.6 18.4 -4.6 14 12.4 NNE 19 30 10 16 1024.4 - 0.0
21/04:00pm 25.1 18.9 -5.2 13 12.8 NE 19 30 10 16 1024.5 - 0.0
21/03:30pm 25.4 19.9 -5.0 13 12.9 ENE 15 24 8 13 1024.6 - 0.0
21/03:00pm 26.3 20.7 -3.3 14 13.0 NE 17 26 9 14 1024.8 1024.7 0.0
21/02:30pm 25.8 19.7 -3.7 14 12.9 NE 19 35 10 19 1025.0 - 0.0
21/02:00pm 26.0 20.8 -2.6 15 12.7 N 15 32 8 17 1025.3 - 0.0
21/01:30pm 25.7 19.6 -3.8 14 12.8 ENE 19 32 10 17 1025.6 - 0.0
21/01:00pm 25.5 19.8 -3.9 14 12.7 NE 17 30 9 16 1026.0 - 0.0
21/12:30pm 25.7 19.8 -2.0 16 12.4 NNE 19 28 10 15 1026.3 - 0.0
21/12:00pm 25.1 21.0 -3.3 15 12.3 NNE 9 30 5 16 1026.9 1026.9 0.0
21/11:30am 24.9 18.3 -0.3 19 11.6 ENE 24 35 13 19 1027.2 - 0.0
21/11:00am 24.0 18.7 -0.3 20 11.1 NNE 17 26 9 14 1027.6 - 0.0
21/10:30am 23.6 17.9 -0.6 20 11.0 N 19 28 10 15 1028.0 - 0.0
21/10:00am 22.8 16.5 -1.3 20 10.7 N 22 32 12 17 1028.3 - 0.0
21/09:30am 21.4 15.9 0.6 25 9.5 N 19 28 10 15 1028.6 - 0.0
21/09:00am 20.0 14.5 0.5 27 8.7 NNE 19 28 10 15 1028.4 1028.4 0.0
21/08:30am 18.5 12.9 0.2 29 8.1 NNE 19 24 10 13 1028.4 - 0.0
21/08:00am 16.6 11.8 0.3 33 7.1 NNE 15 20 8 11 1028.3 - 0.0
21/07:30am 14.9 10.1 0.4 37 6.2 NNE 15 19 8 10 1028.1 - 0.0
21/07:00am 13.5 8.3 0.2 40 5.6 NNE 17 20 9 11 1027.6 - 0.0
21/06:30am 10.8 5.2 -0.3 46 4.5 NE 19 22 10 12 1027.4 - 0.0
21/06:00am 10.9 5.3 -0.2 46 4.5 NE 19 20 10 11 1026.9 1026.9 0.0
21/05:30am 10.9 5.7 -0.2 46 4.5 NE 17 19 9 10 1026.7 - 0.0
21/05:00am 10.7 5.1 0.2 48 4.3 NE 19 22 10 12 1026.3 - 0.0
21/04:30am 11.9 7.1 0.4 45 4.8 NNE 15 17 8 9 1026.0 - 0.0
21/04:00am 10.9 5.4 0.3 48 4.4 NE 19 20 10 11 1025.8 - 0.0
21/03:30am 11.3 5.7 0.1 46 4.6 NE 19 20 10 11 1025.5 - 0.0
21/03:00am 11.3 6.1 0.1 46 4.6 NE 17 20 9 11 1025.6 1025.6 0.0
21/02:30am 11.4 5.8 -0.1 45 4.7 ENE 19 20 10 11 1025.6 - 0.0
21/02:00am 11.9 6.3 -0.3 43 5.0 ENE 19 20 10 11 1025.7 - 0.0
21/01:30am 12.0 6.4 -0.2 43 5.0 ENE 19 20 10 11 1025.9 - 0.0
21/01:00am 11.8 6.7 0.6 46 4.7 ENE 17 20 9 11 1025.8 - 0.0
21/12:30am 12.9 7.4 0.6 43 5.2 ENE 19 22 10 12 1025.9 - 0.0
21/12:00am 13.3 8.2 0.7 42 5.3 ENE 17 20 9 11 1025.9 1025.9 0.0
 
Date/Time
CST
Temp
°C
App
Temp
°C
Dew
Point
Rel
Hum
%
Delta-T
°C
Wind Press
QNH
hPa
Press
MSL
hPa
Rain
since 9 am
mm
Dir
 
Spd
km/h
Gust
km/h
Spd
kts
Gust
kts
20/11:30pm 13.1 8.2 1.8 46 4.9 ENE 17 19 9 10 1025.8 - 0.0
20/11:00pm 12.8 8.0 2.6 50 4.5 E 17 20 9 11 1025.8 - 0.0
20/10:30pm 10.8 6.9 3.4 60 3.3 ESE 13 17 7 9 1025.8 - 0.0
20/10:00pm 11.8 7.8 3.1 55 3.9 ESE 13 15 7 8 1025.8 - 0.0
20/09:30pm 12.8 8.5 3.2 52 4.3 ESE 15 17 8 9 1025.7 - 0.0
20/09:00pm 14.6 10.2 2.8 45 5.3 SE 15 17 8 9 1025.6 1025.6 0.0
20/08:30pm 15.7 10.9 2.8 42 5.9 ESE 17 24 9 13 1025.1 - 0.0
20/08:00pm 14.6 10.1 2.2 43 5.5 SE 15 19 8 10 1024.5 - 0.0
20/07:30pm 14.8 10.2 1.7 41 5.8 ESE 15 17 8 9 1024.0 - 0.0
20/07:00pm 15.6 11.1 2.1 40 6.0 ESE 15 17 8 9 1023.4 - 0.0
20/06:30pm 16.8 13.4 3.8 42 6.1 ESE 11 13 6 7 1023.0 - 0.0
20/06:00pm 20.6 18.3 5.8 38 7.4 E 7 9 4 5 1022.6 1022.6 0.0
20/05:30pm 24.1 22.5 2.3 24 10.5 CALM 0 6 0 3 1022.3 - 0.0
20/05:00pm 24.5 21.2 0.1 20 11.3 ESE 7 11 4 6 1022.1 - 0.0
20/04:30pm 25.0 21.0 -2.5 16 12.2 NE 9 15 5 8 1022.0 - 0.0
20/04:00pm 25.4 21.5 -1.4 17 12.1 S 9 17 5 9 1021.8 - 0.0
20/03:30pm 25.8 22.4 -0.3 18 12.1 WNW 7 11 4 6 1021.8 - 0.0
20/03:00pm 25.3 19.8 -2.3 16 12.2 NW 17 22 9 12 1021.8 1021.8 0.0
20/02:30pm 25.3 21.7 -2.3 16 12.3 N 7 17 4 9 1021.9 - 0.0
20/02:00pm 25.6 21.1 -0.5 18 12.0 WNW 13 24 7 13 1022.1 - 0.0
20/01:30pm 25.3 21.1 -0.7 18 11.9 NW 11 20 6 11 1022.2 - 0.0
20/01:00pm 24.9 19.5 -1.0 18 11.8 N 17 22 9 12 1022.5 - 0.0
20/12:30pm 24.7 19.4 -0.4 19 11.5 N 17 26 9 14 1022.8 - 0.0
20/12:00pm 24.1 19.5 -0.9 19 11.3 N 13 20 7 11 1023.3 1023.3 0.0
20/11:30am 23.8 18.1 -0.5 20 11.1 NNE 19 26 10 14 1023.7 - 0.0
20/11:00am 23.1 17.1 0.9 23 10.3 N 22 28 12 15 1024.1 - 0.0
20/10:30am 22.3 16.5 0.2 23 10.1 N 20 32 11 17 1024.3 - 0.0
20/10:00am 21.3 15.8 1.6 27 9.2 NNE 20 26 11 14 1024.3 - 0.0
20/09:30am 20.1 14.9 2.5 31 8.2 NNE 19 26 10 14 1024.2 - 0.0
20/09:00am 18.3 12.9 1.3 32 7.6 NNE 19 26 10 14 1024.0 1023.9 0.0
20/08:30am 15.7 11.1 3.5 44 5.6 NE 17 22 9 12 1023.9 - 0.0
20/08:00am 13.2 8.0 2.7 49 4.7 NE 19 22 10 12 1023.5 - 0.0
20/07:30am 11.4 6.6 2.4 54 3.9 ENE 17 20 9 11 1023.3 - 0.0
20/07:00am 10.8 6.0 2.6 57 3.6 ENE 17 20 9 11 1022.9 - 0.0
20/06:30am 10.2 5.0 2.3 58 3.4 ENE 19 22 10 12 1022.6 - 0.0
20/06:00am 10.4 5.5 2.0 56 3.6 ENE 17 19 9 10 1022.2 1022.2 0.0
20/05:30am 10.6 5.7 2.2 56 3.6 ENE 17 19 9 10 1021.8 - 0.0
20/05:00am 10.0 5.6 2.6 60 3.2 NE 15 17 8 9 1021.5 - 0.0
20/04:30am 10.7 5.9 2.8 58 3.4 ENE 17 19 9 10 1021.1 - 0.0
20/04:00am 12.0 6.8 2.7 53 4.1 ENE 19 20 10 11 1020.8 - 0.0
20/03:30am 11.2 6.5 3.3 58 3.5 ENE 17 19 9 10 1020.6 - 0.0
20/03:00am 10.9 5.9 3.5 60 3.3 ENE 19 20 10 11 1020.5 1020.5 0.0
20/02:30am 10.9 5.7 3.5 60 3.3 ENE 20 24 11 13 1020.5 - 0.0
20/02:00am 9.9 5.0 4.1 67 2.6 ENE 19 22 10 12 1020.7 - 0.0
20/01:30am 10.6 6.1 4.3 65 2.8 ENE 17 20 9 11 1020.9 - 0.0
20/01:00am 10.7 5.8 4.2 64 2.9 ENE 19 20 10 11 1021.1 - 0.0
20/12:30am 11.5 6.6 4.0 60 3.4 ENE 19 22 10 12 1021.4 - 0.0
20/12:00am 10.9 6.4 4.4 64 2.9 E 17 19 9 10 1021.4 1021.4 0.0
 
Date/Time
CST
Temp
°C
App
Temp
°C
Dew
Point
Rel
Hum
%
Delta-T
°C
Wind Press
QNH
hPa
Press
MSL
hPa
Rain
since 9 am
mm
Dir
 
Spd
km/h
Gust
km/h
Spd
kts
Gust
kts
19/11:30pm 10.5 6.1 4.9 68 2.6 ENE 17 20 9 11 1021.5 - 0.0
19/11:00pm 8.1 4.8 4.3 77 1.7 E 11 13 6 7 1022.0 - 0.0
19/10:30pm 7.7 4.3 4.1 78 1.6 ESE 11 13 6 7 1022.3 - 0.0
19/10:00pm 9.4 5.8 4.8 73 2.1 SE 13 15 7 8 1022.4 - 0.0
19/09:30pm 10.1 6.1 5.1 71 2.3 SE 15 17 8 9 1022.3 - 0.0
19/09:00pm 10.7 6.7 4.8 67 2.7 SE 15 17 8 9 1022.3 1022.3 0.0
19/08:30pm 12.4 8.1 5.1 61 3.4 SSE 17 20 9 11 1022.5 - 0.0
19/08:00pm 11.7 8.0 4.7 62 3.2 SSE 13 15 7 8 1022.2 - 0.0
19/07:30pm 12.3 9.0 4.3 58 3.7 SSE 11 15 6 8 1021.9 - 0.0
19/07:00pm 14.4 10.6 4.1 50 4.8 S 13 17 7 9 1021.6 - 0.0
19/06:30pm 15.5 11.7 3.9 46 5.4 S 13 17 7 9 1021.4 - 0.0
19/06:00pm 17.7 13.5 3.9 40 6.5 S 15 19 8 10 1021.2 1021.2 0.0
19/05:30pm 20.6 18.0 3.3 32 8.3 W 6 9 3 5 1020.8 - 0.0
19/05:00pm 21.9 18.6 0.4 24 9.8 W 7 11 4 6 1020.7 - 0.0
19/04:30pm 20.9 17.2 0.2 25 9.3 W 9 13 5 7 1020.5 - 0.0
19/04:00pm 21.3 17.9 1.6 27 9.2 NW 9 13 5 7 1020.5 - 0.0
19/03:30pm 21.8 18.7 0.4 24 9.8 WNW 6 19 3 10 1020.6 - 0.0
19/03:00pm 21.5 16.9 1.7 27 9.2 WNW 15 30 8 16 1020.7 1020.7 0.0
19/02:30pm 21.4 16.9 0.0 24 9.6 WNW 13 24 7 13 1021.0 - 0.0
19/02:00pm 21.5 17.5 0.7 25 9.5 NW 11 22 6 12 1021.2 - 0.0
19/01:30pm 21.1 17.7 1.9 28 9.0 NNW 9 13 5 7 1021.5 - 0.0
19/01:00pm 21.5 17.2 1.2 26 9.4 NNW 13 22 7 12 1022.1 - 0.0
19/12:30pm 20.7 16.4 1.1 27 9.0 NNW 13 22 7 12 1022.3 - 0.0
19/12:00pm 20.5 17.2 2.3 30 8.5 N 9 17 5 9 1022.8 1022.8 0.0
19/11:30am 19.4 16.1 2.3 32 7.9 N 9 17 5 9 1023.4 - 0.0
19/11:00am 18.7 15.4 2.5 34 7.5 NNE 9 22 5 12 1023.7 - 0.0
19/10:30am 18.4 15.1 4.6 40 6.7 NE 11 17 6 9 1024.0 - 0.0
19/10:00am 16.8 12.4 4.5 44 5.9 NE 17 24 9 13 1024.2 - 0.0
19/09:30am 15.8 12.0 6.0 52 4.8 ENE 15 20 8 11 1024.4 - 0.0
19/09:00am 13.7 9.6 6.3 61 3.6 E 17 22 9 12 1024.5 1024.4 0.0
19/08:30am 11.8 7.3 6.3 69 2.6 ENE 19 24 10 13 1024.3 - 0.0
19/08:00am 10.4 5.7 6.2 75 2.0 E 20 26 11 14 1024.0 - 0.0
19/07:30am 9.2 4.7 6.1 81 1.4 E 19 24 10 13 1023.9 - 0.0
19/07:00am 7.7 3.5 5.5 86 1.0 E 17 20 9 11 1023.9 - 0.0
19/06:30am 7.1 2.4 5.1 87 0.9 E 19 22 10 12 1023.6 - 0.0
19/06:00am 7.2 2.3 5.0 86 1.0 ENE 20 24 11 13 1023.3 1023.3 0.0
19/05:30am 7.3 2.4 5.1 86 1.0 ENE 20 24 11 13 1022.9 - 0.0
19/05:00am 7.0 2.0 4.8 86 1.0 ENE 20 26 11 14 1022.6 - 0.0
19/04:30am 6.7 1.3 4.7 87 0.9 ENE 22 26 12 14 1022.5 - 0.0
19/04:00am 6.4 0.9 4.2 86 1.0 ENE 22 28 12 15 1022.4 - 0.0
19/03:30am 7.1 1.8 4.8 85 1.0 E 22 28 12 15 1022.5 - 0.0
19/03:00am 7.3 1.9 4.4 82 1.3 E 22 30 12 16 1022.8 1022.8 0.0
19/02:30am 7.5 2.5 4.5 81 1.3 E 20 26 11 14 1023.1 - 0.0
19/02:00am 7.7 2.6 4.3 79 1.5 E 20 28 11 15 1023.3 - 0.0
19/01:30am 7.8 2.6 3.5 74 1.9 E 20 28 11 15 1023.6 - 0.0
19/01:00am 8.3 3.1 3.6 72 2.0 E 20 28 11 15 1023.6 - 0.0
19/12:30am 8.0 2.9 2.9 70 2.2 E 19 24 10 13 1024.0 - 0.0
19/12:00am 8.4 3.2 2.6 67 2.4 E 19 24 10 13 1024.2 1024.1 0.0

Other Formats:

Comma delimited format used in spreadsheet applications
http://www.bom.gov.au/fwo/IDS60801/IDS60801.95662.axf

JavaScript Object Notation format (JSON) in row-major order
http://www.bom.gov.au/fwo/IDS60801/IDS60801.95662.json